sensor_id;sensor_type;location;lat;lon;timestamp;temperature;humidity
3562;DHT22;1795;52.074;4.754;2022-07-29T00:02:05;18.60;99.90
3562;DHT22;1795;52.074;4.754;2022-07-29T00:04:36;18.60;99.90
3562;DHT22;1795;52.074;4.754;2022-07-29T00:07:04;18.60;99.90
3562;DHT22;1795;52.074;4.754;2022-07-29T00:09:32;18.60;99.90
3562;DHT22;1795;52.074;4.754;2022-07-29T00:12:17;18.60;99.90
3562;DHT22;1795;52.074;4.754;2022-07-29T00:14:53;18.50;99.90
3562;DHT22;1795;52.074;4.754;2022-07-29T00:17:22;18.50;99.90
3562;DHT22;1795;52.074;4.754;2022-07-29T00:19:52;18.50;99.90
3562;DHT22;1795;52.074;4.754;2022-07-29T00:22:20;18.50;99.90
3562;DHT22;1795;52.074;4.754;2022-07-29T00:24:48;18.40;99.90
3562;DHT22;1795;52.074;4.754;2022-07-29T00:27:16;18.40;99.90
3562;DHT22;1795;52.074;4.754;2022-07-29T00:29:45;18.40;99.90
3562;DHT22;1795;52.074;4.754;2022-07-29T00:32:13;18.40;99.90
3562;DHT22;1795;52.074;4.754;2022-07-29T00:34:41;18.40;99.90
3562;DHT22;1795;52.074;4.754;2022-07-29T00:37:28;18.30;99.90
3562;DHT22;1795;52.074;4.754;2022-07-29T00:39:56;18.30;99.90
3562;DHT22;1795;52.074;4.754;2022-07-29T00:42:24;18.30;99.90
3562;DHT22;1795;52.074;4.754;2022-07-29T00:44:52;18.30;99.90
3562;DHT22;1795;52.074;4.754;2022-07-29T00:47:20;18.30;99.90
3562;DHT22;1795;52.074;4.754;2022-07-29T00:49:48;18.30;99.90
3562;DHT22;1795;52.074;4.754;2022-07-29T00:52:16;18.30;99.90
3562;DHT22;1795;52.074;4.754;2022-07-29T00:54:45;18.20;99.90
3562;DHT22;1795;52.074;4.754;2022-07-29T00:57:13;18.20;99.90
3562;DHT22;1795;52.074;4.754;2022-07-29T00:59:41;18.20;99.90
3562;DHT22;1795;52.074;4.754;2022-07-29T01:02:09;18.20;99.90
3562;DHT22;1795;52.074;4.754;2022-07-29T01:04:37;18.10;99.90
3562;DHT22;1795;52.074;4.754;2022-07-29T01:07:06;18.10;99.90
3562;DHT22;1795;52.074;4.754;2022-07-29T01:09:35;18.10;99.90
3562;DHT22;1795;52.074;4.754;2022-07-29T01:12:17;18.10;99.90
3562;DHT22;1795;52.074;4.754;2022-07-29T01:14:47;18.00;99.90
3562;DHT22;1795;52.074;4.754;2022-07-29T01:17:21;18.00;99.90
3562;DHT22;1795;52.074;4.754;2022-07-29T01:19:56;18.00;99.90
3562;DHT22;1795;52.074;4.754;2022-07-29T01:22:29;18.00;99.90
3562;DHT22;1795;52.074;4.754;2022-07-29T01:25:20;18.00;99.90
3562;DHT22;1795;52.074;4.754;2022-07-29T01:28:13;18.00;99.90
3562;DHT22;1795;52.074;4.754;2022-07-29T01:30:51;18.00;99.90
3562;DHT22;1795;52.074;4.754;2022-07-29T01:33:21;17.90;99.90
3562;DHT22;1795;52.074;4.754;2022-07-29T01:36:09;17.90;99.90
3562;DHT22;1795;52.074;4.754;2022-07-29T01:38:39;17.90;99.90
3562;DHT22;1795;52.074;4.754;2022-07-29T01:41:10;17.90;99.90
3562;DHT22;1795;52.074;4.754;2022-07-29T01:43:44;17.90;99.90
3562;DHT22;1795;52.074;4.754;2022-07-29T01:46:17;17.90;99.90
3562;DHT22;1795;52.074;4.754;2022-07-29T01:48:50;17.80;99.90
3562;DHT22;1795;52.074;4.754;2022-07-29T01:51:24;17.80;99.90
3562;DHT22;1795;52.074;4.754;2022-07-29T01:53:57;17.80;99.90
3562;DHT22;1795;52.074;4.754;2022-07-29T01:56:26;17.80;99.90
3562;DHT22;1795;52.074;4.754;2022-07-29T01:58:59;17.80;99.90
3562;DHT22;1795;52.074;4.754;2022-07-29T02:01:31;17.80;99.90
3562;DHT22;1795;52.074;4.754;2022-07-29T02:04:02;17.80;99.90
3562;DHT22;1795;52.074;4.754;2022-07-29T02:06:33;17.70;99.90
3562;DHT22;1795;52.074;4.754;2022-07-29T02:09:02;17.70;99.90
3562;DHT22;1795;52.074;4.754;2022-07-29T02:11:35;17.70;99.90
3562;DHT22;1795;52.074;4.754;2022-07-29T02:14:05;17.70;99.90
3562;DHT22;1795;52.074;4.754;2022-07-29T02:16:36;17.70;99.90
3562;DHT22;1795;52.074;4.754;2022-07-29T02:19:06;17.60;99.90
3562;DHT22;1795;52.074;4.754;2022-07-29T02:21:35;17.60;99.90
3562;DHT22;1795;52.074;4.754;2022-07-29T02:24:05;17.60;99.90
3562;DHT22;1795;52.074;4.754;2022-07-29T02:26:33;17.60;99.90
3562;DHT22;1795;52.074;4.754;2022-07-29T02:29:02;17.60;99.90
3562;DHT22;1795;52.074;4.754;2022-07-29T02:31:33;17.60;99.90
3562;DHT22;1795;52.074;4.754;2022-07-29T02:34:06;17.60;99.90
3562;DHT22;1795;52.074;4.754;2022-07-29T02:36:34;17.60;99.90
3562;DHT22;1795;52.074;4.754;2022-07-29T02:39:04;17.60;99.90
3562;DHT22;1795;52.074;4.754;2022-07-29T02:41:41;17.50;99.90
3562;DHT22;1795;52.074;4.754;2022-07-29T02:44:11;17.50;99.90
3562;DHT22;1795;52.074;4.754;2022-07-29T02:46:43;17.50;99.90
3562;DHT22;1795;52.074;4.754;2022-07-29T02:49:18;17.50;99.90
3562;DHT22;1795;52.074;4.754;2022-07-29T02:51:53;17.50;99.90
3562;DHT22;1795;52.074;4.754;2022-07-29T02:54:29;17.50;99.90
3562;DHT22;1795;52.074;4.754;2022-07-29T02:57:01;17.50;99.90
3562;DHT22;1795;52.074;4.754;2022-07-29T02:59:34;17.50;99.90
3562;DHT22;1795;52.074;4.754;2022-07-29T03:02:05;17.50;99.90
3562;DHT22;1795;52.074;4.754;2022-07-29T03:04:37;17.40;99.90
3562;DHT22;1795;52.074;4.754;2022-07-29T03:07:06;17.40;99.90
3562;DHT22;1795;52.074;4.754;2022-07-29T03:09:36;17.40;99.90
3562;DHT22;1795;52.074;4.754;2022-07-29T03:12:05;17.40;99.90
3562;DHT22;1795;52.074;4.754;2022-07-29T03:14:33;17.40;99.90
3562;DHT22;1795;52.074;4.754;2022-07-29T03:17:02;17.40;99.90
3562;DHT22;1795;52.074;4.754;2022-07-29T03:19:31;17.40;99.90
3562;DHT22;1795;52.074;4.754;2022-07-29T03:22:00;17.30;99.90
3562;DHT22;1795;52.074;4.754;2022-07-29T03:24:30;17.30;99.90
3562;DHT22;1795;52.074;4.754;2022-07-29T03:26:58;17.30;99.90
3562;DHT22;1795;52.074;4.754;2022-07-29T03:29:27;17.30;99.90
3562;DHT22;1795;52.074;4.754;2022-07-29T03:32:00;17.30;99.90
3562;DHT22;1795;52.074;4.754;2022-07-29T03:34:29;17.30;99.90
3562;DHT22;1795;52.074;4.754;2022-07-29T03:36:58;17.20;99.90
3562;DHT22;1795;52.074;4.754;2022-07-29T03:39:31;17.20;99.90
3562;DHT22;1795;52.074;4.754;2022-07-29T03:42:01;17.20;99.90
3562;DHT22;1795;52.074;4.754;2022-07-29T03:44:31;17.20;99.90
3562;DHT22;1795;52.074;4.754;2022-07-29T03:47:00;17.20;99.90
3562;DHT22;1795;52.074;4.754;2022-07-29T03:49:29;17.20;99.90
3562;DHT22;1795;52.074;4.754;2022-07-29T03:51:58;17.10;99.90
3562;DHT22;1795;52.074;4.754;2022-07-29T03:54:28;17.10;99.90
3562;DHT22;1795;52.074;4.754;2022-07-29T03:56:59;17.10;99.90
3562;DHT22;1795;52.074;4.754;2022-07-29T03:59:27;17.10;99.90
3562;DHT22;1795;52.074;4.754;2022-07-29T04:01:58;17.10;99.90
3562;DHT22;1795;52.074;4.754;2022-07-29T04:04:27;17.10;99.90
3562;DHT22;1795;52.074;4.754;2022-07-29T04:06:55;17.00;99.90
3562;DHT22;1795;52.074;4.754;2022-07-29T04:09:23;17.00;99.90
3562;DHT22;1795;52.074;4.754;2022-07-29T04:11:52;17.00;99.90
3562;DHT22;1795;52.074;4.754;2022-07-29T04:14:29;17.00;99.90
3562;DHT22;1795;52.074;4.754;2022-07-29T04:16:57;17.00;99.90
3562;DHT22;1795;52.074;4.754;2022-07-29T04:19:25;17.00;99.90
3562;DHT22;1795;52.074;4.754;2022-07-29T04:21:53;16.90;99.90
3562;DHT22;1795;52.074;4.754;2022-07-29T04:24:21;16.90;99.90
3562;DHT22;1795;52.074;4.754;2022-07-29T04:26:49;16.90;99.90
3562;DHT22;1795;52.074;4.754;2022-07-29T04:29:18;16.90;99.90
3562;DHT22;1795;52.074;4.754;2022-07-29T04:31:46;16.90;99.90
3562;DHT22;1795;52.074;4.754;2022-07-29T04:34:14;16.90;99.90
3562;DHT22;1795;52.074;4.754;2022-07-29T04:36:43;16.90;99.90
3562;DHT22;1795;52.074;4.754;2022-07-29T04:39:11;16.80;99.90
3562;DHT22;1795;52.074;4.754;2022-07-29T04:41:44;16.80;99.90
3562;DHT22;1795;52.074;4.754;2022-07-29T04:44:13;16.80;99.90
3562;DHT22;1795;52.074;4.754;2022-07-29T04:46:44;16.80;99.90
3562;DHT22;1795;52.074;4.754;2022-07-29T04:49:12;16.80;99.90
3562;DHT22;1795;52.074;4.754;2022-07-29T04:51:41;16.80;99.90
3562;DHT22;1795;52.074;4.754;2022-07-29T04:54:08;16.80;99.90
3562;DHT22;1795;52.074;4.754;2022-07-29T04:56:36;16.80;99.90
3562;DHT22;1795;52.074;4.754;2022-07-29T04:59:04;16.80;99.90
3562;DHT22;1795;52.074;4.754;2022-07-29T05:01:33;16.80;99.90
3562;DHT22;1795;52.074;4.754;2022-07-29T05:04:02;16.80;99.90
3562;DHT22;1795;52.074;4.754;2022-07-29T05:06:30;16.80;99.90
3562;DHT22;1795;52.074;4.754;2022-07-29T05:08:59;16.80;99.90
3562;DHT22;1795;52.074;4.754;2022-07-29T05:11:27;16.80;99.90
3562;DHT22;1795;52.074;4.754;2022-07-29T05:13:56;16.80;99.90
3562;DHT22;1795;52.074;4.754;2022-07-29T05:16:24;16.80;99.90
3562;DHT22;1795;52.074;4.754;2022-07-29T05:18:52;16.80;99.90
3562;DHT22;1795;52.074;4.754;2022-07-29T05:21:22;16.80;99.90
3562;DHT22;1795;52.074;4.754;2022-07-29T05:23:50;16.80;99.90
3562;DHT22;1795;52.074;4.754;2022-07-29T05:26:18;16.70;99.90
3562;DHT22;1795;52.074;4.754;2022-07-29T05:28:45;16.70;99.90
3562;DHT22;1795;52.074;4.754;2022-07-29T05:31:14;16.80;99.90
3562;DHT22;1795;52.074;4.754;2022-07-29T05:33:43;16.70;99.90
3562;DHT22;1795;52.074;4.754;2022-07-29T05:36:28;16.70;99.90
3562;DHT22;1795;52.074;4.754;2022-07-29T05:38:56;16.70;99.90
3562;DHT22;1795;52.074;4.754;2022-07-29T05:41:24;16.70;99.90
3562;DHT22;1795;52.074;4.754;2022-07-29T05:43:52;16.70;99.90
3562;DHT22;1795;52.074;4.754;2022-07-29T05:46:20;16.70;99.90
3562;DHT22;1795;52.074;4.754;2022-07-29T05:48:48;16.70;99.90
3562;DHT22;1795;52.074;4.754;2022-07-29T05:51:16;16.70;99.90
3562;DHT22;1795;52.074;4.754;2022-07-29T05:53:46;16.80;99.90
3562;DHT22;1795;52.074;4.754;2022-07-29T05:56:14;16.80;99.90
3562;DHT22;1795;52.074;4.754;2022-07-29T05:58:42;16.70;99.90
3562;DHT22;1795;52.074;4.754;2022-07-29T06:01:10;16.70;99.90
3562;DHT22;1795;52.074;4.754;2022-07-29T06:03:38;16.70;99.90
3562;DHT22;1795;52.074;4.754;2022-07-29T06:06:07;16.70;99.90
3562;DHT22;1795;52.074;4.754;2022-07-29T06:08:36;16.70;99.90
3562;DHT22;1795;52.074;4.754;2022-07-29T06:11:05;16.80;99.90
3562;DHT22;1795;52.074;4.754;2022-07-29T06:13:34;16.80;99.90
3562;DHT22;1795;52.074;4.754;2022-07-29T06:16:03;16.80;99.90
3562;DHT22;1795;52.074;4.754;2022-07-29T06:18:31;16.90;99.90
3562;DHT22;1795;52.074;4.754;2022-07-29T06:20:59;17.00;99.90
3562;DHT22;1795;52.074;4.754;2022-07-29T06:23:27;17.10;99.90
3562;DHT22;1795;52.074;4.754;2022-07-29T06:25:55;17.10;99.90
3562;DHT22;1795;52.074;4.754;2022-07-29T06:28:25;17.20;99.90
3562;DHT22;1795;52.074;4.754;2022-07-29T06:30:53;17.30;99.90
3562;DHT22;1795;52.074;4.754;2022-07-29T06:33:21;17.40;99.90
3562;DHT22;1795;52.074;4.754;2022-07-29T06:35:49;17.50;99.90
3562;DHT22;1795;52.074;4.754;2022-07-29T06:38:21;17.60;99.90
3562;DHT22;1795;52.074;4.754;2022-07-29T06:41:00;17.70;99.90
3562;DHT22;1795;52.074;4.754;2022-07-29T06:43:32;17.80;99.90
3562;DHT22;1795;52.074;4.754;2022-07-29T06:46:21;17.90;99.90
3562;DHT22;1795;52.074;4.754;2022-07-29T06:48:50;18.00;99.90
3562;DHT22;1795;52.074;4.754;2022-07-29T06:51:19;18.20;99.90
3562;DHT22;1795;52.074;4.754;2022-07-29T06:53:49;18.30;99.90
3562;DHT22;1795;52.074;4.754;2022-07-29T06:56:28;18.50;99.90
3562;DHT22;1795;52.074;4.754;2022-07-29T06:58:57;18.50;99.90
3562;DHT22;1795;52.074;4.754;2022-07-29T07:01:27;18.60;99.90
3562;DHT22;1795;52.074;4.754;2022-07-29T07:03:55;18.70;99.90
3562;DHT22;1795;52.074;4.754;2022-07-29T07:06:23;18.80;99.90
3562;DHT22;1795;52.074;4.754;2022-07-29T07:08:51;18.80;99.90
3562;DHT22;1795;52.074;4.754;2022-07-29T07:11:19;18.90;99.90
3562;DHT22;1795;52.074;4.754;2022-07-29T07:13:47;19.00;99.90
3562;DHT22;1795;52.074;4.754;2022-07-29T07:16:16;19.00;99.90
3562;DHT22;1795;52.074;4.754;2022-07-29T07:18:44;19.10;99.90
3562;DHT22;1795;52.074;4.754;2022-07-29T07:21:15;19.10;99.90
3562;DHT22;1795;52.074;4.754;2022-07-29T07:23:45;19.10;99.90
3562;DHT22;1795;52.074;4.754;2022-07-29T07:26:14;19.20;99.90
3562;DHT22;1795;52.074;4.754;2022-07-29T07:28:42;19.20;99.90
3562;DHT22;1795;52.074;4.754;2022-07-29T07:31:11;19.30;99.90
3562;DHT22;1795;52.074;4.754;2022-07-29T07:33:40;19.30;99.90
3562;DHT22;1795;52.074;4.754;2022-07-29T07:36:08;19.30;99.90
3562;DHT22;1795;52.074;4.754;2022-07-29T07:38:36;19.40;99.90
3562;DHT22;1795;52.074;4.754;2022-07-29T07:41:04;19.40;99.90
3562;DHT22;1795;52.074;4.754;2022-07-29T07:43:32;19.50;99.90
3562;DHT22;1795;52.074;4.754;2022-07-29T07:46:00;19.50;99.90
3562;DHT22;1795;52.074;4.754;2022-07-29T07:48:29;19.60;99.90
3562;DHT22;1795;52.074;4.754;2022-07-29T07:50:58;19.60;99.90
3562;DHT22;1795;52.074;4.754;2022-07-29T07:53:26;19.70;99.90
3562;DHT22;1795;52.074;4.754;2022-07-29T07:55:56;19.70;99.90
3562;DHT22;1795;52.074;4.754;2022-07-29T07:58:39;19.80;99.90
3562;DHT22;1795;52.074;4.754;2022-07-29T08:01:07;19.90;99.90
3562;DHT22;1795;52.074;4.754;2022-07-29T08:03:36;19.90;99.90
3562;DHT22;1795;52.074;4.754;2022-07-29T08:06:05;20.00;99.90
3562;DHT22;1795;52.074;4.754;2022-07-29T08:08:33;20.10;99.90
3562;DHT22;1795;52.074;4.754;2022-07-29T08:11:01;20.10;99.90
3562;DHT22;1795;52.074;4.754;2022-07-29T08:13:35;20.20;99.90
3562;DHT22;1795;52.074;4.754;2022-07-29T08:16:04;20.30;99.90
3562;DHT22;1795;52.074;4.754;2022-07-29T08:18:40;20.30;99.90
3562;DHT22;1795;52.074;4.754;2022-07-29T08:21:10;20.40;99.90
3562;DHT22;1795;52.074;4.754;2022-07-29T08:23:41;20.50;99.90
3562;DHT22;1795;52.074;4.754;2022-07-29T08:26:24;20.50;99.90
3562;DHT22;1795;52.074;4.754;2022-07-29T08:28:52;20.60;99.90
3562;DHT22;1795;52.074;4.754;2022-07-29T08:31:20;20.60;99.90
3562;DHT22;1795;52.074;4.754;2022-07-29T08:33:48;20.70;99.90
3562;DHT22;1795;52.074;4.754;2022-07-29T08:36:18;20.70;99.90
3562;DHT22;1795;52.074;4.754;2022-07-29T08:38:47;20.80;99.90
3562;DHT22;1795;52.074;4.754;2022-07-29T08:41:16;20.90;99.90
3562;DHT22;1795;52.074;4.754;2022-07-29T08:43:45;20.90;99.90
3562;DHT22;1795;52.074;4.754;2022-07-29T08:46:16;21.00;99.90
3562;DHT22;1795;52.074;4.754;2022-07-29T08:48:44;21.00;99.90
3562;DHT22;1795;52.074;4.754;2022-07-29T08:51:14;21.10;99.90
3562;DHT22;1795;52.074;4.754;2022-07-29T08:53:44;21.10;99.90
3562;DHT22;1795;52.074;4.754;2022-07-29T08:56:15;21.20;99.90
3562;DHT22;1795;52.074;4.754;2022-07-29T08:58:45;21.20;99.90
3562;DHT22;1795;52.074;4.754;2022-07-29T09:01:22;21.30;99.90
3562;DHT22;1795;52.074;4.754;2022-07-29T09:04:05;21.30;99.90
3562;DHT22;1795;52.074;4.754;2022-07-29T09:06:37;21.40;99.90
3562;DHT22;1795;52.074;4.754;2022-07-29T09:09:08;21.40;99.90
3562;DHT22;1795;52.074;4.754;2022-07-29T09:11:36;21.40;99.90
3562;DHT22;1795;52.074;4.754;2022-07-29T09:14:05;21.50;99.90
3562;DHT22;1795;52.074;4.754;2022-07-29T09:16:47;21.50;99.90
3562;DHT22;1795;52.074;4.754;2022-07-29T09:19:24;21.60;99.90
3562;DHT22;1795;52.074;4.754;2022-07-29T09:21:53;21.70;99.90
3562;DHT22;1795;52.074;4.754;2022-07-29T09:24:41;21.70;99.90
3562;DHT22;1795;52.074;4.754;2022-07-29T09:27:18;21.80;99.90
3562;DHT22;1795;52.074;4.754;2022-07-29T09:29:47;21.80;99.90
3562;DHT22;1795;52.074;4.754;2022-07-29T09:32:15;21.90;99.90
3562;DHT22;1795;52.074;4.754;2022-07-29T09:34:43;21.90;99.90
3562;DHT22;1795;52.074;4.754;2022-07-29T09:37:11;22.00;99.90
3562;DHT22;1795;52.074;4.754;2022-07-29T09:39:40;22.00;99.90
3562;DHT22;1795;52.074;4.754;2022-07-29T09:42:13;22.10;99.90
3562;DHT22;1795;52.074;4.754;2022-07-29T09:44:46;22.20;99.90
3562;DHT22;1795;52.074;4.754;2022-07-29T09:47:15;22.20;99.90
3562;DHT22;1795;52.074;4.754;2022-07-29T09:49:55;22.30;99.90
3562;DHT22;1795;52.074;4.754;2022-07-29T09:52:25;22.30;99.90
3562;DHT22;1795;52.074;4.754;2022-07-29T09:55:04;22.40;99.90
3562;DHT22;1795;52.074;4.754;2022-07-29T09:57:32;22.40;99.90
3562;DHT22;1795;52.074;4.754;2022-07-29T10:00:03;22.50;99.90
3562;DHT22;1795;52.074;4.754;2022-07-29T10:02:34;22.60;99.90
3562;DHT22;1795;52.074;4.754;2022-07-29T10:05:05;22.70;99.90
3562;DHT22;1795;52.074;4.754;2022-07-29T10:07:47;22.70;99.90
3562;DHT22;1795;52.074;4.754;2022-07-29T10:10:23;22.80;99.90
3562;DHT22;1795;52.074;4.754;2022-07-29T10:12:53;22.90;99.90
3562;DHT22;1795;52.074;4.754;2022-07-29T10:15:24;22.90;99.90
3562;DHT22;1795;52.074;4.754;2022-07-29T10:17:55;23.00;99.90
3562;DHT22;1795;52.074;4.754;2022-07-29T10:20:25;23.10;99.90
3562;DHT22;1795;52.074;4.754;2022-07-29T10:22:54;23.10;99.90
3562;DHT22;1795;52.074;4.754;2022-07-29T10:25:26;23.20;99.90
3562;DHT22;1795;52.074;4.754;2022-07-29T10:27:58;23.30;99.90
3562;DHT22;1795;52.074;4.754;2022-07-29T10:30:27;23.30;99.90
3562;DHT22;1795;52.074;4.754;2022-07-29T10:33:24;23.40;99.90
3562;DHT22;1795;52.074;4.754;2022-07-29T10:36:11;23.50;99.90
3562;DHT22;1795;52.074;4.754;2022-07-29T10:38:49;23.60;99.90
3562;DHT22;1795;52.074;4.754;2022-07-29T10:41:39;23.60;99.90
3562;DHT22;1795;52.074;4.754;2022-07-29T10:44:16;23.70;99.90
3562;DHT22;1795;52.074;4.754;2022-07-29T10:46:52;23.80;99.90
3562;DHT22;1795;52.074;4.754;2022-07-29T10:49:25;23.90;99.90
3562;DHT22;1795;52.074;4.754;2022-07-29T10:52:01;24.00;99.90
3562;DHT22;1795;52.074;4.754;2022-07-29T10:54:43;24.10;99.90
3562;DHT22;1795;52.074;4.754;2022-07-29T10:57:19;24.20;99.90
3562;DHT22;1795;52.074;4.754;2022-07-29T11:00:31;24.20;99.90
3562;DHT22;1795;52.074;4.754;2022-07-29T11:02:59;24.40;99.90
3562;DHT22;1795;52.074;4.754;2022-07-29T11:05:56;24.50;99.90
3562;DHT22;1795;52.074;4.754;2022-07-29T11:08:25;24.50;99.90
3562;DHT22;1795;52.074;4.754;2022-07-29T11:14:11;24.70;99.90
3562;DHT22;1795;52.074;4.754;2022-07-29T11:17:01;24.80;99.90
3562;DHT22;1795;52.074;4.754;2022-07-29T11:19:33;24.90;99.90
3562;DHT22;1795;52.074;4.754;2022-07-29T11:22:01;25.00;99.90
3562;DHT22;1795;52.074;4.754;2022-07-29T11:24:31;25.10;99.90
3562;DHT22;1795;52.074;4.754;2022-07-29T11:27:14;25.20;99.90
3562;DHT22;1795;52.074;4.754;2022-07-29T11:29:55;25.30;99.90
3562;DHT22;1795;52.074;4.754;2022-07-29T11:32:35;25.40;99.90
3562;DHT22;1795;52.074;4.754;2022-07-29T11:35:15;25.50;99.90
3562;DHT22;1795;52.074;4.754;2022-07-29T11:38:23;25.60;99.90
3562;DHT22;1795;52.074;4.754;2022-07-29T11:41:21;25.70;99.90
3562;DHT22;1795;52.074;4.754;2022-07-29T11:43:52;25.80;99.90
3562;DHT22;1795;52.074;4.754;2022-07-29T11:46:50;25.80;99.90
3562;DHT22;1795;52.074;4.754;2022-07-29T11:49:21;26.00;99.90
3562;DHT22;1795;52.074;4.754;2022-07-29T11:51:59;26.10;99.70
3562;DHT22;1795;52.074;4.754;2022-07-29T11:54:31;26.10;99.00
3562;DHT22;1795;52.074;4.754;2022-07-29T11:57:20;26.20;99.30
3562;DHT22;1795;52.074;4.754;2022-07-29T11:59:48;26.30;99.10
3562;DHT22;1795;52.074;4.754;2022-07-29T12:02:17;26.40;98.80
3562;DHT22;1795;52.074;4.754;2022-07-29T12:05:03;26.40;99.10
3562;DHT22;1795;52.074;4.754;2022-07-29T12:07:38;26.50;98.80
3562;DHT22;1795;52.074;4.754;2022-07-29T12:10:11;26.60;98.80
3562;DHT22;1795;52.074;4.754;2022-07-29T12:12:55;26.70;98.80
3562;DHT22;1795;52.074;4.754;2022-07-29T12:15:24;26.80;98.40
3562;DHT22;1795;52.074;4.754;2022-07-29T12:18:14;26.90;98.50
3562;DHT22;1795;52.074;4.754;2022-07-29T12:20:44;27.00;98.10
3562;DHT22;1795;52.074;4.754;2022-07-29T12:23:13;27.10;97.80
3562;DHT22;1795;52.074;4.754;2022-07-29T12:25:44;27.10;97.70
3562;DHT22;1795;52.074;4.754;2022-07-29T12:28:15;27.20;97.50
3562;DHT22;1795;52.074;4.754;2022-07-29T12:30:53;27.20;97.20
3562;DHT22;1795;52.074;4.754;2022-07-29T12:33:24;27.30;97.00
3562;DHT22;1795;52.074;4.754;2022-07-29T12:35:55;27.40;96.50
3562;DHT22;1795;52.074;4.754;2022-07-29T12:38:33;27.50;96.50
3562;DHT22;1795;52.074;4.754;2022-07-29T12:41:02;27.50;96.20
3562;DHT22;1795;52.074;4.754;2022-07-29T12:43:31;27.50;95.80
3562;DHT22;1795;52.074;4.754;2022-07-29T12:46:12;27.60;96.10
3562;DHT22;1795;52.074;4.754;2022-07-29T12:48:43;27.60;95.70
3562;DHT22;1795;52.074;4.754;2022-07-29T12:51:11;27.60;95.30
3562;DHT22;1795;52.074;4.754;2022-07-29T12:53:41;27.70;95.90
3562;DHT22;1795;52.074;4.754;2022-07-29T12:56:16;27.80;96.00
3562;DHT22;1795;52.074;4.754;2022-07-29T12:59:17;27.80;95.80
3562;DHT22;1795;52.074;4.754;2022-07-29T13:01:45;27.90;95.90
3562;DHT22;1795;52.074;4.754;2022-07-29T13:04:26;27.90;95.70
3562;DHT22;1795;52.074;4.754;2022-07-29T13:07:01;27.90;95.50
3562;DHT22;1795;52.074;4.754;2022-07-29T13:09:37;27.90;94.90
3562;DHT22;1795;52.074;4.754;2022-07-29T13:12:08;28.00;95.20
3562;DHT22;1795;52.074;4.754;2022-07-29T13:14:38;28.00;94.90
3562;DHT22;1795;52.074;4.754;2022-07-29T13:17:07;28.00;94.60
3562;DHT22;1795;52.074;4.754;2022-07-29T13:19:38;28.00;94.50
3562;DHT22;1795;52.074;4.754;2022-07-29T13:22:08;28.00;94.90
3562;DHT22;1795;52.074;4.754;2022-07-29T13:24:49;28.10;94.80
3562;DHT22;1795;52.074;4.754;2022-07-29T13:27:19;28.10;93.80
3562;DHT22;1795;52.074;4.754;2022-07-29T13:29:47;28.10;93.50
3562;DHT22;1795;52.074;4.754;2022-07-29T13:32:18;28.10;92.20
3562;DHT22;1795;52.074;4.754;2022-07-29T13:34:55;28.20;92.40
3562;DHT22;1795;52.074;4.754;2022-07-29T13:37:24;28.20;92.60
3562;DHT22;1795;52.074;4.754;2022-07-29T13:39:52;28.20;92.60
3562;DHT22;1795;52.074;4.754;2022-07-29T13:42:21;28.30;92.00
3562;DHT22;1795;52.074;4.754;2022-07-29T13:44:49;28.30;91.80
3562;DHT22;1795;52.074;4.754;2022-07-29T13:47:18;28.40;92.40
3562;DHT22;1795;52.074;4.754;2022-07-29T13:49:46;28.40;92.60
3562;DHT22;1795;52.074;4.754;2022-07-29T13:52:16;28.50;92.50
3562;DHT22;1795;52.074;4.754;2022-07-29T13:54:47;28.60;92.70
3562;DHT22;1795;52.074;4.754;2022-07-29T13:57:16;28.70;92.70
3562;DHT22;1795;52.074;4.754;2022-07-29T13:59:45;28.70;91.60
3562;DHT22;1795;52.074;4.754;2022-07-29T14:02:20;28.80;91.90
3562;DHT22;1795;52.074;4.754;2022-07-29T14:04:52;28.90;92.00
3562;DHT22;1795;52.074;4.754;2022-07-29T14:07:25;29.00;91.00
3562;DHT22;1795;52.074;4.754;2022-07-29T14:09:57;29.10;90.30
3562;DHT22;1795;52.074;4.754;2022-07-29T14:12:29;29.20;90.70
3562;DHT22;1795;52.074;4.754;2022-07-29T14:15:01;29.20;90.40
3562;DHT22;1795;52.074;4.754;2022-07-29T14:17:33;29.30;91.00
3562;DHT22;1795;52.074;4.754;2022-07-29T14:20:04;29.40;90.80
3562;DHT22;1795;52.074;4.754;2022-07-29T14:22:38;29.50;90.60
3562;DHT22;1795;52.074;4.754;2022-07-29T14:25:12;29.60;89.60
3562;DHT22;1795;52.074;4.754;2022-07-29T14:27:45;29.60;88.10
3562;DHT22;1795;52.074;4.754;2022-07-29T14:30:13;29.70;88.30
3562;DHT22;1795;52.074;4.754;2022-07-29T14:32:43;29.80;86.40
3562;DHT22;1795;52.074;4.754;2022-07-29T14:35:12;29.90;87.30
3562;DHT22;1795;52.074;4.754;2022-07-29T14:37:45;30.00;87.60
3562;DHT22;1795;52.074;4.754;2022-07-29T14:40:22;30.10;86.30
3562;DHT22;1795;52.074;4.754;2022-07-29T14:42:50;30.20;87.50
3562;DHT22;1795;52.074;4.754;2022-07-29T14:45:24;30.30;86.60
3562;DHT22;1795;52.074;4.754;2022-07-29T14:47:53;30.30;86.10
3562;DHT22;1795;52.074;4.754;2022-07-29T14:50:24;30.40;85.80
3562;DHT22;1795;52.074;4.754;2022-07-29T14:52:59;30.50;85.60
3562;DHT22;1795;52.074;4.754;2022-07-29T14:55:28;30.50;85.00
3562;DHT22;1795;52.074;4.754;2022-07-29T14:57:56;30.60;84.10
3562;DHT22;1795;52.074;4.754;2022-07-29T15:00:38;30.70;84.00
3562;DHT22;1795;52.074;4.754;2022-07-29T15:03:06;30.80;84.50
3562;DHT22;1795;52.074;4.754;2022-07-29T15:05:39;30.90;85.00
3562;DHT22;1795;52.074;4.754;2022-07-29T15:08:11;31.00;84.60
3562;DHT22;1795;52.074;4.754;2022-07-29T15:10:40;31.00;84.80
3562;DHT22;1795;52.074;4.754;2022-07-29T15:13:13;31.00;82.50
3562;DHT22;1795;52.074;4.754;2022-07-29T15:15:50;31.10;84.10
3562;DHT22;1795;52.074;4.754;2022-07-29T15:18:26;31.10;83.40
3562;DHT22;1795;52.074;4.754;2022-07-29T15:20:58;31.10;84.00
3562;DHT22;1795;52.074;4.754;2022-07-29T15:23:33;31.20;84.40
3562;DHT22;1795;52.074;4.754;2022-07-29T15:26:06;31.20;85.20
3562;DHT22;1795;52.074;4.754;2022-07-29T15:28:42;31.30;84.10
3562;DHT22;1795;52.074;4.754;2022-07-29T15:31:11;31.30;84.30
3562;DHT22;1795;52.074;4.754;2022-07-29T15:33:41;31.30;83.80
3562;DHT22;1795;52.074;4.754;2022-07-29T15:36:12;31.30;81.40
3562;DHT22;1795;52.074;4.754;2022-07-29T15:39:01;31.30;82.30
3562;DHT22;1795;52.074;4.754;2022-07-29T15:41:32;31.30;80.80
3562;DHT22;1795;52.074;4.754;2022-07-29T15:44:02;31.30;82.50
3562;DHT22;1795;52.074;4.754;2022-07-29T15:46:34;31.30;81.80
3562;DHT22;1795;52.074;4.754;2022-07-29T15:49:16;31.40;81.70
3562;DHT22;1795;52.074;4.754;2022-07-29T15:51:48;31.40;82.00
3562;DHT22;1795;52.074;4.754;2022-07-29T15:54:20;31.40;82.30
3562;DHT22;1795;52.074;4.754;2022-07-29T15:56:53;31.40;82.60
3562;DHT22;1795;52.074;4.754;2022-07-29T15:59:22;31.50;80.50
3562;DHT22;1795;52.074;4.754;2022-07-29T16:01:51;31.50;80.80
3562;DHT22;1795;52.074;4.754;2022-07-29T16:04:21;31.50;82.30
3562;DHT22;1795;52.074;4.754;2022-07-29T16:06:51;31.50;81.20
3562;DHT22;1795;52.074;4.754;2022-07-29T16:09:34;31.50;81.00
3562;DHT22;1795;52.074;4.754;2022-07-29T16:12:02;31.60;80.90
3562;DHT22;1795;52.074;4.754;2022-07-29T16:14:41;31.60;78.80
3562;DHT22;1795;52.074;4.754;2022-07-29T16:17:10;31.50;77.80
3562;DHT22;1795;52.074;4.754;2022-07-29T16:19:43;31.60;79.30
3562;DHT22;1795;52.074;4.754;2022-07-29T16:22:15;31.60;78.10
3562;DHT22;1795;52.074;4.754;2022-07-29T16:24:45;31.60;76.80
3562;DHT22;1795;52.074;4.754;2022-07-29T16:27:16;31.60;78.20
3562;DHT22;1795;52.074;4.754;2022-07-29T16:29:45;31.50;78.40
3562;DHT22;1795;52.074;4.754;2022-07-29T16:32:15;31.60;78.10
3562;DHT22;1795;52.074;4.754;2022-07-29T16:34:49;31.50;78.90
3562;DHT22;1795;52.074;4.754;2022-07-29T16:37:18;31.50;78.60